Aeroporto :
LOGIN :

Iscrizione | Disclaimer

   EN    FR    IT 

 










Sommario :    VFR   VFR Marginale   IFR   IFR Intensivo   IFR Molto Intensivo
Visibilità : 
Base nubi : 
>= 8 km
>= 3000ft
5 / 8 km
1000 / 3000 ft
1500m / 5 km
500 / 1000 ft
800 / 1500m
200 / 500 ft
< 800m
< 200 ft
Simboli :   Temporali  Nebbia  Neve Forte  Precipitazioni Forti  Vento > 20 kt
SIGMETs :   Varie  Temporali  Ghiacco  Turbolenza  Onda orograficha  Ceneri Vulcaniche






- Altitudine del aeroporto : 1708 ft
- Codice IATA : SJJ


LQSA - Sarajevo

ULTIMO METAR :
  • 171800Z 20003KT 120V250 CAVOK 08/01 Q1021 NOSIG

METARs OBSOLETI :
  • 171730Z 18003KT 080V210 CAVOK 09/01 Q1021 NOSIG
  • 171700Z 13004KT 070V190 CAVOK 10/00 Q1021 NOSIG
  • 171630Z 16004KT 110V220 CAVOK 13/M01 Q1021 NOSIG
  • 171600Z VRB02KT CAVOK 15/M01 Q1020 NOSIG
  • 171530Z 32004KT 260V020 CAVOK 18/M04 Q1020 NOSIG

TAF COR TAF LQSA
Valido dal 17 a 18 ore il 18 a 18 ore UTC


171706Z 1718/1818 13006KT CAVOK TX14/1813Z TNM00/1805Z
PROB40 1804/1808 2000 BR
TEMPO 1811/1818 35010KT



MetMap, La meteo Aeronautica in un colpo d'occhio ! - Copyright ORBIFLY Dicembre 2007 - Disclaimer

ORBIFLY MET'MAP TEAM :

Programmazione e sviluppo : Alexandra Zaïnal
Concezione : Baudouin d'Aumeries
Aiuto per la programmazione : Marc-Olivier Méhu
Supporto tecnico e logistico : Manuel Goepfert
Aiuto per la traduzione : Arnaldo La Scala

Contatto : metmap@orbifly.com




FONTI E CREDITI :

   NOAA